sensor_id;sensor_type;location;lat;lon;timestamp;temperature;humidity
75824;DHT22;64457;51.976;9.834;2023-04-22T00:01:16;14.70;73.70
75824;DHT22;64457;51.976;9.834;2023-04-22T00:03:45;14.60;74.60
75824;DHT22;64457;51.976;9.834;2023-04-22T00:06:13;14.60;75.00
75824;DHT22;64457;51.976;9.834;2023-04-22T00:08:41;14.60;74.50
75824;DHT22;64457;51.976;9.834;2023-04-22T00:11:09;14.40;74.70
75824;DHT22;64457;51.976;9.834;2023-04-22T00:13:37;14.40;75.10
75824;DHT22;64457;51.976;9.834;2023-04-22T00:16:06;14.40;75.20
75824;DHT22;64457;51.976;9.834;2023-04-22T00:18:35;14.30;75.70
75824;DHT22;64457;51.976;9.834;2023-04-22T00:21:04;14.30;75.10
75824;DHT22;64457;51.976;9.834;2023-04-22T00:23:32;14.20;75.50
75824;DHT22;64457;51.976;9.834;2023-04-22T00:26:00;14.20;75.70
75824;DHT22;64457;51.976;9.834;2023-04-22T00:28:29;14.20;76.10
75824;DHT22;64457;51.976;9.834;2023-04-22T00:30:57;14.20;75.60
75824;DHT22;64457;51.976;9.834;2023-04-22T00:33:27;13.90;76.50
75824;DHT22;64457;51.976;9.834;2023-04-22T00:35:56;13.80;76.70
75824;DHT22;64457;51.976;9.834;2023-04-22T00:38:24;13.80;77.20
75824;DHT22;64457;51.976;9.834;2023-04-22T00:40:53;13.90;76.50
75824;DHT22;64457;51.976;9.834;2023-04-22T00:43:21;13.70;77.40
75824;DHT22;64457;51.976;9.834;2023-04-22T00:45:49;13.40;78.70
75824;DHT22;64457;51.976;9.834;2023-04-22T00:48:17;13.40;80.00
75824;DHT22;64457;51.976;9.834;2023-04-22T00:50:45;13.60;80.20
75824;DHT22;64457;51.976;9.834;2023-04-22T00:53:14;13.70;78.80
75824;DHT22;64457;51.976;9.834;2023-04-22T00:55:42;13.80;78.50
75824;DHT22;64457;51.976;9.834;2023-04-22T00:58:09;13.80;79.20
75824;DHT22;64457;51.976;9.834;2023-04-22T01:00:37;13.80;78.20
75824;DHT22;64457;51.976;9.834;2023-04-22T01:03:05;13.90;78.60
75824;DHT22;64457;51.976;9.834;2023-04-22T01:05:34;14.00;78.20
75824;DHT22;64457;51.976;9.834;2023-04-22T01:08:02;14.00;77.80
75824;DHT22;64457;51.976;9.834;2023-04-22T01:10:34;14.00;77.30
75824;DHT22;64457;51.976;9.834;2023-04-22T01:13:03;14.10;77.60
75824;DHT22;64457;51.976;9.834;2023-04-22T01:15:30;14.10;77.10
75824;DHT22;64457;51.976;9.834;2023-04-22T01:18:00;14.00;78.60
75824;DHT22;64457;51.976;9.834;2023-04-22T01:20:28;13.90;77.90
75824;DHT22;64457;51.976;9.834;2023-04-22T01:22:58;13.90;77.90
75824;DHT22;64457;51.976;9.834;2023-04-22T01:25:30;13.80;77.30
75824;DHT22;64457;51.976;9.834;2023-04-22T01:27:59;13.70;78.70
75824;DHT22;64457;51.976;9.834;2023-04-22T01:30:27;13.70;78.90
75824;DHT22;64457;51.976;9.834;2023-04-22T01:32:55;13.70;78.00
75824;DHT22;64457;51.976;9.834;2023-04-22T01:35:23;13.60;77.40
75824;DHT22;64457;51.976;9.834;2023-04-22T01:37:51;13.30;79.00
75824;DHT22;64457;51.976;9.834;2023-04-22T01:40:20;13.00;80.50
75824;DHT22;64457;51.976;9.834;2023-04-22T01:42:50;12.90;81.40
75824;DHT22;64457;51.976;9.834;2023-04-22T01:45:18;13.00;81.00
75824;DHT22;64457;51.976;9.834;2023-04-22T01:47:47;13.20;81.70
75824;DHT22;64457;51.976;9.834;2023-04-22T01:50:15;13.20;80.10
75824;DHT22;64457;51.976;9.834;2023-04-22T01:52:43;13.20;80.20
75824;DHT22;64457;51.976;9.834;2023-04-22T01:55:11;13.10;80.80
75824;DHT22;64457;51.976;9.834;2023-04-22T01:57:39;13.10;81.70
75824;DHT22;64457;51.976;9.834;2023-04-22T02:00:10;13.20;80.70
75824;DHT22;64457;51.976;9.834;2023-04-22T02:02:40;13.20;79.60
75824;DHT22;64457;51.976;9.834;2023-04-22T02:05:09;13.10;80.50
75824;DHT22;64457;51.976;9.834;2023-04-22T02:07:37;13.10;80.60
75824;DHT22;64457;51.976;9.834;2023-04-22T02:10:07;13.10;80.60
75824;DHT22;64457;51.976;9.834;2023-04-22T02:12:36;13.10;80.90
75824;DHT22;64457;51.976;9.834;2023-04-22T02:15:05;13.00;80.40
75824;DHT22;64457;51.976;9.834;2023-04-22T02:17:40;12.90;81.90
75824;DHT22;64457;51.976;9.834;2023-04-22T02:20:09;12.90;81.50
75824;DHT22;64457;51.976;9.834;2023-04-22T02:22:38;12.90;81.80
75824;DHT22;64457;51.976;9.834;2023-04-22T02:25:09;12.80;81.80
75824;DHT22;64457;51.976;9.834;2023-04-22T02:27:39;12.70;83.10
75824;DHT22;64457;51.976;9.834;2023-04-22T02:30:10;12.80;83.20
75824;DHT22;64457;51.976;9.834;2023-04-22T02:32:40;12.90;83.30
75824;DHT22;64457;51.976;9.834;2023-04-22T02:35:09;12.90;82.80
75824;DHT22;64457;51.976;9.834;2023-04-22T02:37:38;13.10;82.80
75824;DHT22;64457;51.976;9.834;2023-04-22T02:40:07;13.20;82.10
75824;DHT22;64457;51.976;9.834;2023-04-22T02:42:36;13.30;81.70
75824;DHT22;64457;51.976;9.834;2023-04-22T02:45:05;13.50;81.60
75824;DHT22;64457;51.976;9.834;2023-04-22T02:47:38;13.50;81.80
75824;DHT22;64457;51.976;9.834;2023-04-22T02:50:07;13.40;81.20
75824;DHT22;64457;51.976;9.834;2023-04-22T02:52:35;13.50;81.00
75824;DHT22;64457;51.976;9.834;2023-04-22T02:55:05;13.50;80.90
75824;DHT22;64457;51.976;9.834;2023-04-22T02:57:34;13.50;80.80
75824;DHT22;64457;51.976;9.834;2023-04-22T03:00:02;13.60;80.60
75824;DHT22;64457;51.976;9.834;2023-04-22T03:02:34;13.70;80.40
75824;DHT22;64457;51.976;9.834;2023-04-22T03:05:04;13.80;79.60
75824;DHT22;64457;51.976;9.834;2023-04-22T03:07:32;13.90;79.20
75824;DHT22;64457;51.976;9.834;2023-04-22T03:10:01;13.80;79.10
75824;DHT22;64457;51.976;9.834;2023-04-22T03:12:30;13.80;78.80
75824;DHT22;64457;51.976;9.834;2023-04-22T03:14:58;13.80;79.10
75824;DHT22;64457;51.976;9.834;2023-04-22T03:17:25;13.90;79.30
75824;DHT22;64457;51.976;9.834;2023-04-22T03:19:54;14.10;78.00
75824;DHT22;64457;51.976;9.834;2023-04-22T03:22:22;14.10;78.20
75824;DHT22;64457;51.976;9.834;2023-04-22T03:24:50;14.00;78.00
75824;DHT22;64457;51.976;9.834;2023-04-22T03:27:18;13.70;78.80
75824;DHT22;64457;51.976;9.834;2023-04-22T03:29:48;13.80;79.50
75824;DHT22;64457;51.976;9.834;2023-04-22T03:32:15;13.80;79.40
75824;DHT22;64457;51.976;9.834;2023-04-22T03:34:43;13.80;79.30
75824;DHT22;64457;51.976;9.834;2023-04-22T03:37:12;13.90;79.00
75824;DHT22;64457;51.976;9.834;2023-04-22T03:39:39;14.00;78.90
75824;DHT22;64457;51.976;9.834;2023-04-22T03:42:09;14.10;78.20
75824;DHT22;64457;51.976;9.834;2023-04-22T03:44:36;14.30;78.40
75824;DHT22;64457;51.976;9.834;2023-04-22T03:47:05;14.30;78.00
75824;DHT22;64457;51.976;9.834;2023-04-22T03:49:33;14.10;78.60
75824;DHT22;64457;51.976;9.834;2023-04-22T03:52:02;14.10;79.00
75824;DHT22;64457;51.976;9.834;2023-04-22T03:54:31;14.00;79.10
75824;DHT22;64457;51.976;9.834;2023-04-22T03:56:59;13.90;79.30
75824;DHT22;64457;51.976;9.834;2023-04-22T03:59:27;13.90;79.40
75824;DHT22;64457;51.976;9.834;2023-04-22T04:01:55;13.90;79.50
75824;DHT22;64457;51.976;9.834;2023-04-22T04:04:23;13.80;79.70
75824;DHT22;64457;51.976;9.834;2023-04-22T04:06:54;13.70;80.10
75824;DHT22;64457;51.976;9.834;2023-04-22T04:09:22;13.70;79.80
75824;DHT22;64457;51.976;9.834;2023-04-22T04:11:52;13.80;80.50
75824;DHT22;64457;51.976;9.834;2023-04-22T04:14:20;13.70;80.20
75824;DHT22;64457;51.976;9.834;2023-04-22T04:16:48;13.80;80.20
75824;DHT22;64457;51.976;9.834;2023-04-22T04:19:16;13.80;80.20
75824;DHT22;64457;51.976;9.834;2023-04-22T04:21:44;13.70;80.00
75824;DHT22;64457;51.976;9.834;2023-04-22T04:24:12;13.60;80.70
75824;DHT22;64457;51.976;9.834;2023-04-22T04:26:41;13.30;81.80
75824;DHT22;64457;51.976;9.834;2023-04-22T04:29:11;13.30;81.90
75824;DHT22;64457;51.976;9.834;2023-04-22T04:31:41;13.50;81.90
75824;DHT22;64457;51.976;9.834;2023-04-22T04:34:10;13.70;81.50
75824;DHT22;64457;51.976;9.834;2023-04-22T04:36:40;13.80;80.50
75824;DHT22;64457;51.976;9.834;2023-04-22T04:39:11;14.10;80.40
75824;DHT22;64457;51.976;9.834;2023-04-22T04:41:43;14.30;79.10
75824;DHT22;64457;51.976;9.834;2023-04-22T04:44:15;14.40;78.70
75824;DHT22;64457;51.976;9.834;2023-04-22T04:46:43;14.70;78.10
75824;DHT22;64457;51.976;9.834;2023-04-22T04:49:11;15.00;78.00
75824;DHT22;64457;51.976;9.834;2023-04-22T04:51:41;15.10;76.50
75824;DHT22;64457;51.976;9.834;2023-04-22T04:54:08;15.30;77.70
75824;DHT22;64457;51.976;9.834;2023-04-22T04:56:36;15.40;76.90
75824;DHT22;64457;51.976;9.834;2023-04-22T04:59:05;15.40;75.70
75824;DHT22;64457;51.976;9.834;2023-04-22T05:01:34;15.40;76.50
75824;DHT22;64457;51.976;9.834;2023-04-22T05:04:01;15.60;76.40
75824;DHT22;64457;51.976;9.834;2023-04-22T05:06:29;15.50;76.20
75824;DHT22;64457;51.976;9.834;2023-04-22T05:08:57;15.70;75.80
75824;DHT22;64457;51.976;9.834;2023-04-22T05:11:25;15.30;76.00
75824;DHT22;64457;51.976;9.834;2023-04-22T05:13:53;15.40;76.20
75824;DHT22;64457;51.976;9.834;2023-04-22T05:16:22;15.70;76.00
75824;DHT22;64457;51.976;9.834;2023-04-22T05:18:52;15.90;75.60
75824;DHT22;64457;51.976;9.834;2023-04-22T05:21:20;16.10;75.30
75824;DHT22;64457;51.976;9.834;2023-04-22T05:23:48;16.30;74.50
75824;DHT22;64457;51.976;9.834;2023-04-22T05:26:16;16.40;74.10
75824;DHT22;64457;51.976;9.834;2023-04-22T05:28:44;16.50;74.30
75824;DHT22;64457;51.976;9.834;2023-04-22T05:31:11;16.70;74.00
75824;DHT22;64457;51.976;9.834;2023-04-22T05:33:39;16.60;73.50
75824;DHT22;64457;51.976;9.834;2023-04-22T05:36:08;16.70;73.60
75824;DHT22;64457;51.976;9.834;2023-04-22T05:38:36;16.70;73.50
75824;DHT22;64457;51.976;9.834;2023-04-22T05:41:03;16.70;73.50
75824;DHT22;64457;51.976;9.834;2023-04-22T05:43:32;16.80;73.20
75824;DHT22;64457;51.976;9.834;2023-04-22T05:46:01;17.00;73.20
75824;DHT22;64457;51.976;9.834;2023-04-22T05:48:29;17.50;72.30
75824;DHT22;64457;51.976;9.834;2023-04-22T05:50:57;18.50;71.00
75824;DHT22;64457;51.976;9.834;2023-04-22T05:53:27;19.80;67.70
75824;DHT22;64457;51.976;9.834;2023-04-22T05:55:55;21.20;65.10
75824;DHT22;64457;51.976;9.834;2023-04-22T05:58:22;23.20;63.50
75824;DHT22;64457;51.976;9.834;2023-04-22T06:00:51;24.80;57.60
75824;DHT22;64457;51.976;9.834;2023-04-22T06:03:19;26.40;55.90
75824;DHT22;64457;51.976;9.834;2023-04-22T06:05:47;27.70;51.90
75824;DHT22;64457;51.976;9.834;2023-04-22T06:08:15;29.00;50.00
75824;DHT22;64457;51.976;9.834;2023-04-22T06:10:45;29.90;48.50
75824;DHT22;64457;51.976;9.834;2023-04-22T06:13:14;29.60;47.30
75824;DHT22;64457;51.976;9.834;2023-04-22T06:15:42;29.80;47.80
75824;DHT22;64457;51.976;9.834;2023-04-22T06:18:10;29.80;45.20
75824;DHT22;64457;51.976;9.834;2023-04-22T06:20:38;28.10;48.00
75824;DHT22;64457;51.976;9.834;2023-04-22T06:23:07;27.90;47.70
75824;DHT22;64457;51.976;9.834;2023-04-22T06:25:35;28.00;49.40
75824;DHT22;64457;51.976;9.834;2023-04-22T06:28:04;29.30;49.20
75824;DHT22;64457;51.976;9.834;2023-04-22T06:30:32;30.30;46.50
75824;DHT22;64457;51.976;9.834;2023-04-22T06:33:01;30.40;45.00
75824;DHT22;64457;51.976;9.834;2023-04-22T06:35:29;30.70;46.10
75824;DHT22;64457;51.976;9.834;2023-04-22T06:37:59;30.80;45.40
75824;DHT22;64457;51.976;9.834;2023-04-22T06:40:30;30.40;45.40
75824;DHT22;64457;51.976;9.834;2023-04-22T06:42:58;30.40;45.90
75824;DHT22;64457;51.976;9.834;2023-04-22T06:45:28;30.00;44.70
75824;DHT22;64457;51.976;9.834;2023-04-22T06:47:58;27.30;47.50
75824;DHT22;64457;51.976;9.834;2023-04-22T06:50:25;26.50;49.60
75824;DHT22;64457;51.976;9.834;2023-04-22T06:52:55;27.10;48.90
75824;DHT22;64457;51.976;9.834;2023-04-22T06:55:25;26.50;48.70
75824;DHT22;64457;51.976;9.834;2023-04-22T06:57:54;25.60;51.30
75824;DHT22;64457;51.976;9.834;2023-04-22T07:00:23;26.30;50.20
75824;DHT22;64457;51.976;9.834;2023-04-22T07:02:56;27.10;49.60
75824;DHT22;64457;51.976;9.834;2023-04-22T07:05:26;27.70;48.20
75824;DHT22;64457;51.976;9.834;2023-04-22T07:07:55;26.80;49.20
75824;DHT22;64457;51.976;9.834;2023-04-22T07:10:23;26.40;50.00
75824;DHT22;64457;51.976;9.834;2023-04-22T07:12:52;26.10;51.40
75824;DHT22;64457;51.976;9.834;2023-04-22T07:15:20;26.10;50.10
75824;DHT22;64457;51.976;9.834;2023-04-22T07:17:48;24.40;51.90
75824;DHT22;64457;51.976;9.834;2023-04-22T07:20:19;23.70;54.00
75824;DHT22;64457;51.976;9.834;2023-04-22T07:22:49;25.60;53.20
75824;DHT22;64457;51.976;9.834;2023-04-22T07:25:17;25.70;51.70
75824;DHT22;64457;51.976;9.834;2023-04-22T07:27:49;26.10;50.20
75824;DHT22;64457;51.976;9.834;2023-04-22T07:30:17;25.30;51.80
75824;DHT22;64457;51.976;9.834;2023-04-22T07:32:45;24.90;54.90
75824;DHT22;64457;51.976;9.834;2023-04-22T07:35:15;25.90;51.60
75824;DHT22;64457;51.976;9.834;2023-04-22T07:37:45;26.00;52.50
75824;DHT22;64457;51.976;9.834;2023-04-22T07:40:12;25.60;50.80
75824;DHT22;64457;51.976;9.834;2023-04-22T07:42:40;25.30;52.50
75824;DHT22;64457;51.976;9.834;2023-04-22T07:45:09;25.80;51.50
75824;DHT22;64457;51.976;9.834;2023-04-22T07:47:39;26.50;50.60
75824;DHT22;64457;51.976;9.834;2023-04-22T07:50:07;26.70;50.00
75824;DHT22;64457;51.976;9.834;2023-04-22T07:52:37;27.40;49.00
75824;DHT22;64457;51.976;9.834;2023-04-22T07:55:07;26.90;49.40
75824;DHT22;64457;51.976;9.834;2023-04-22T07:57:35;27.70;49.10
75824;DHT22;64457;51.976;9.834;2023-04-22T08:00:05;29.10;48.60
75824;DHT22;64457;51.976;9.834;2023-04-22T08:02:33;31.10;45.10
75824;DHT22;64457;51.976;9.834;2023-04-22T08:05:02;30.10;44.70
75824;DHT22;64457;51.976;9.834;2023-04-22T08:07:31;28.60;48.00
75824;DHT22;64457;51.976;9.834;2023-04-22T08:10:00;29.00;46.10
75824;DHT22;64457;51.976;9.834;2023-04-22T08:12:30;28.20;47.50
75824;DHT22;64457;51.976;9.834;2023-04-22T08:14:59;28.10;49.80
75824;DHT22;64457;51.976;9.834;2023-04-22T08:17:27;29.30;48.10
75824;DHT22;64457;51.976;9.834;2023-04-22T08:19:56;29.80;47.20
75824;DHT22;64457;51.976;9.834;2023-04-22T08:22:24;29.90;46.40
75824;DHT22;64457;51.976;9.834;2023-04-22T08:24:52;28.70;47.90
75824;DHT22;64457;51.976;9.834;2023-04-22T08:27:21;30.00;49.30
75824;DHT22;64457;51.976;9.834;2023-04-22T08:29:51;31.10;45.10
75824;DHT22;64457;51.976;9.834;2023-04-22T08:32:20;32.80;44.70
75824;DHT22;64457;51.976;9.834;2023-04-22T08:34:50;34.00;44.30
75824;DHT22;64457;51.976;9.834;2023-04-22T08:37:19;35.20;40.20
75824;DHT22;64457;51.976;9.834;2023-04-22T08:39:46;35.70;40.50
75824;DHT22;64457;51.976;9.834;2023-04-22T08:42:14;36.10;39.90
75824;DHT22;64457;51.976;9.834;2023-04-22T08:44:42;37.00;37.40
75824;DHT22;64457;51.976;9.834;2023-04-22T08:47:14;35.10;39.30
75824;DHT22;64457;51.976;9.834;2023-04-22T08:49:42;35.50;40.40
75824;DHT22;64457;51.976;9.834;2023-04-22T08:52:12;36.70;39.20
75824;DHT22;64457;51.976;9.834;2023-04-22T08:54:40;37.20;35.90
75824;DHT22;64457;51.976;9.834;2023-04-22T08:57:09;36.60;37.80
75824;DHT22;64457;51.976;9.834;2023-04-22T08:59:39;36.50;36.40
75824;DHT22;64457;51.976;9.834;2023-04-22T09:02:16;36.60;38.60
75824;DHT22;64457;51.976;9.834;2023-04-22T09:04:49;35.90;37.00
75824;DHT22;64457;51.976;9.834;2023-04-22T09:07:22;34.20;37.90
75824;DHT22;64457;51.976;9.834;2023-04-22T09:09:51;32.50;43.50
75824;DHT22;64457;51.976;9.834;2023-04-22T09:12:19;32.00;41.10
75824;DHT22;64457;51.976;9.834;2023-04-22T09:14:48;31.10;42.00
75824;DHT22;64457;51.976;9.834;2023-04-22T09:17:31;30.50;43.70
75824;DHT22;64457;51.976;9.834;2023-04-22T09:19:59;31.00;45.60
75824;DHT22;64457;51.976;9.834;2023-04-22T09:22:37;31.10;42.60
75824;DHT22;64457;51.976;9.834;2023-04-22T09:25:15;31.10;43.30
75824;DHT22;64457;51.976;9.834;2023-04-22T09:27:47;30.60;43.40
75824;DHT22;64457;51.976;9.834;2023-04-22T09:30:17;30.80;44.30
75824;DHT22;64457;51.976;9.834;2023-04-22T09:32:53;31.00;46.30
75824;DHT22;64457;51.976;9.834;2023-04-22T09:35:29;31.80;42.30
75824;DHT22;64457;51.976;9.834;2023-04-22T09:37:59;32.20;43.10
75824;DHT22;64457;51.976;9.834;2023-04-22T09:40:29;32.20;43.20
75824;DHT22;64457;51.976;9.834;2023-04-22T09:43:00;32.80;42.00
75824;DHT22;64457;51.976;9.834;2023-04-22T09:45:30;33.80;40.60
75824;DHT22;64457;51.976;9.834;2023-04-22T09:48:03;32.50;41.30
75824;DHT22;64457;51.976;9.834;2023-04-22T09:50:35;32.00;41.70
75824;DHT22;64457;51.976;9.834;2023-04-22T09:53:06;31.80;42.20
75824;DHT22;64457;51.976;9.834;2023-04-22T09:55:37;31.10;42.70
75824;DHT22;64457;51.976;9.834;2023-04-22T09:58:07;29.90;44.30
75824;DHT22;64457;51.976;9.834;2023-04-22T10:00:39;29.20;46.30
75824;DHT22;64457;51.976;9.834;2023-04-22T10:03:10;29.50;45.50
75824;DHT22;64457;51.976;9.834;2023-04-22T10:05:38;29.40;45.30
75824;DHT22;64457;51.976;9.834;2023-04-22T10:08:08;28.90;46.20
75824;DHT22;64457;51.976;9.834;2023-04-22T10:10:38;29.20;48.80
75824;DHT22;64457;51.976;9.834;2023-04-22T10:13:07;30.40;47.00
75824;DHT22;64457;51.976;9.834;2023-04-22T10:15:38;30.00;45.20
75824;DHT22;64457;51.976;9.834;2023-04-22T10:18:11;29.10;46.50
75824;DHT22;64457;51.976;9.834;2023-04-22T10:20:41;28.10;47.60
75824;DHT22;64457;51.976;9.834;2023-04-22T10:23:13;27.60;48.50
75824;DHT22;64457;51.976;9.834;2023-04-22T10:25:41;27.30;49.70
75824;DHT22;64457;51.976;9.834;2023-04-22T10:28:10;27.30;48.90
75824;DHT22;64457;51.976;9.834;2023-04-22T10:30:39;26.80;50.40
75824;DHT22;64457;51.976;9.834;2023-04-22T10:33:47;26.90;50.50
75824;DHT22;64457;51.976;9.834;2023-04-22T10:36:16;27.20;51.00
75824;DHT22;64457;51.976;9.834;2023-04-22T10:39:14;26.70;50.70
75824;DHT22;64457;51.976;9.834;2023-04-22T10:41:50;26.80;51.30
75824;DHT22;64457;51.976;9.834;2023-04-22T10:44:19;27.30;52.00
75824;DHT22;64457;51.976;9.834;2023-04-22T10:47:00;26.90;51.60
75824;DHT22;64457;51.976;9.834;2023-04-22T10:49:33;27.80;52.30
75824;DHT22;64457;51.976;9.834;2023-04-22T10:52:00;28.20;52.60
75824;DHT22;64457;51.976;9.834;2023-04-22T10:54:55;28.50;50.20
75824;DHT22;64457;51.976;9.834;2023-04-22T10:57:30;28.10;49.80
75824;DHT22;64457;51.976;9.834;2023-04-22T11:00:26;27.80;51.00
75824;DHT22;64457;51.976;9.834;2023-04-22T11:03:14;27.30;51.40
75824;DHT22;64457;51.976;9.834;2023-04-22T11:05:44;27.20;51.20
75824;DHT22;64457;51.976;9.834;2023-04-22T11:08:14;27.00;53.70
75824;DHT22;64457;51.976;9.834;2023-04-22T11:10:49;28.30;52.30
75824;DHT22;64457;51.976;9.834;2023-04-22T11:13:19;28.00;50.30
75824;DHT22;64457;51.976;9.834;2023-04-22T11:15:50;27.90;50.20
75824;DHT22;64457;51.976;9.834;2023-04-22T11:18:21;28.60;51.30
75824;DHT22;64457;51.976;9.834;2023-04-22T11:20:51;29.40;49.70
75824;DHT22;64457;51.976;9.834;2023-04-22T11:23:24;28.50;49.30
75824;DHT22;64457;51.976;9.834;2023-04-22T11:25:55;28.40;53.30
75824;DHT22;64457;51.976;9.834;2023-04-22T11:28:24;29.30;50.40
75824;DHT22;64457;51.976;9.834;2023-04-22T11:30:51;29.50;49.30
75824;DHT22;64457;51.976;9.834;2023-04-22T11:33:19;29.80;48.10
75824;DHT22;64457;51.976;9.834;2023-04-22T11:35:48;29.60;50.20
75824;DHT22;64457;51.976;9.834;2023-04-22T11:38:18;28.90;48.90
75824;DHT22;64457;51.976;9.834;2023-04-22T11:40:47;28.60;48.10
75824;DHT22;64457;51.976;9.834;2023-04-22T11:43:16;28.90;49.50
75824;DHT22;64457;51.976;9.834;2023-04-22T11:45:44;28.90;49.40
75824;DHT22;64457;51.976;9.834;2023-04-22T11:48:13;28.80;48.60
75824;DHT22;64457;51.976;9.834;2023-04-22T11:50:42;28.40;49.40
75824;DHT22;64457;51.976;9.834;2023-04-22T11:53:15;29.00;50.40
75824;DHT22;64457;51.976;9.834;2023-04-22T11:55:47;29.20;49.10
75824;DHT22;64457;51.976;9.834;2023-04-22T11:58:18;29.40;48.00
75824;DHT22;64457;51.976;9.834;2023-04-22T12:00:48;29.90;47.90
75824;DHT22;64457;51.976;9.834;2023-04-22T12:03:19;29.80;47.50
75824;DHT22;64457;51.976;9.834;2023-04-22T12:05:51;29.00;45.20
75824;DHT22;64457;51.976;9.834;2023-04-22T12:08:22;28.40;47.10
75824;DHT22;64457;51.976;9.834;2023-04-22T12:10:54;28.60;45.10
75824;DHT22;64457;51.976;9.834;2023-04-22T12:13:24;28.40;46.80
75824;DHT22;64457;51.976;9.834;2023-04-22T12:15:58;28.00;45.30
75824;DHT22;64457;51.976;9.834;2023-04-22T12:18:29;27.90;47.50
75824;DHT22;64457;51.976;9.834;2023-04-22T12:21:06;28.30;47.60
75824;DHT22;64457;51.976;9.834;2023-04-22T12:23:40;28.90;47.30
75824;DHT22;64457;51.976;9.834;2023-04-22T12:26:11;28.40;46.60
75824;DHT22;64457;51.976;9.834;2023-04-22T12:28:41;27.10;46.40
75824;DHT22;64457;51.976;9.834;2023-04-22T12:31:12;26.90;46.60
75824;DHT22;64457;51.976;9.834;2023-04-22T12:33:40;27.20;47.80
75824;DHT22;64457;51.976;9.834;2023-04-22T12:36:08;27.70;48.60
75824;DHT22;64457;51.976;9.834;2023-04-22T12:38:36;27.90;46.20
75824;DHT22;64457;51.976;9.834;2023-04-22T12:41:05;27.70;45.40
75824;DHT22;64457;51.976;9.834;2023-04-22T12:43:35;27.90;47.00
75824;DHT22;64457;51.976;9.834;2023-04-22T12:46:04;28.20;46.90
75824;DHT22;64457;51.976;9.834;2023-04-22T12:48:33;28.00;45.90
75824;DHT22;64457;51.976;9.834;2023-04-22T12:51:02;28.40;47.10
75824;DHT22;64457;51.976;9.834;2023-04-22T12:53:30;28.30;46.40
75824;DHT22;64457;51.976;9.834;2023-04-22T12:55:58;28.60;45.60
75824;DHT22;64457;51.976;9.834;2023-04-22T12:58:25;28.40;43.00
75824;DHT22;64457;51.976;9.834;2023-04-22T13:00:56;28.60;45.40
75824;DHT22;64457;51.976;9.834;2023-04-22T13:03:23;28.50;43.30
75824;DHT22;64457;51.976;9.834;2023-04-22T13:05:51;28.30;45.30
75824;DHT22;64457;51.976;9.834;2023-04-22T13:08:19;28.40;45.90
75824;DHT22;64457;51.976;9.834;2023-04-22T13:10:48;28.40;45.50
75824;DHT22;64457;51.976;9.834;2023-04-22T13:13:16;28.40;46.70
75824;DHT22;64457;51.976;9.834;2023-04-22T13:15:43;28.50;44.10
75824;DHT22;64457;51.976;9.834;2023-04-22T13:18:13;28.80;47.10
75824;DHT22;64457;51.976;9.834;2023-04-22T13:20:41;28.60;46.30
75824;DHT22;64457;51.976;9.834;2023-04-22T13:23:08;28.50;46.80
75824;DHT22;64457;51.976;9.834;2023-04-22T13:25:37;28.20;47.10
75824;DHT22;64457;51.976;9.834;2023-04-22T13:28:05;28.40;46.70
75824;DHT22;64457;51.976;9.834;2023-04-22T13:30:35;28.40;44.70
75824;DHT22;64457;51.976;9.834;2023-04-22T13:33:02;27.90;46.70
75824;DHT22;64457;51.976;9.834;2023-04-22T13:35:31;28.00;46.10
75824;DHT22;64457;51.976;9.834;2023-04-22T13:37:59;28.30;46.90
75824;DHT22;64457;51.976;9.834;2023-04-22T13:40:26;28.40;46.80
75824;DHT22;64457;51.976;9.834;2023-04-22T13:42:54;28.60;46.40
75824;DHT22;64457;51.976;9.834;2023-04-22T13:45:22;29.10;47.30
75824;DHT22;64457;51.976;9.834;2023-04-22T13:47:50;29.10;45.50
75824;DHT22;64457;51.976;9.834;2023-04-22T13:50:18;28.80;45.00
75824;DHT22;64457;51.976;9.834;2023-04-22T13:52:47;28.40;46.30
75824;DHT22;64457;51.976;9.834;2023-04-22T13:55:16;28.10;46.20
75824;DHT22;64457;51.976;9.834;2023-04-22T13:57:43;28.10;46.10
75824;DHT22;64457;51.976;9.834;2023-04-22T14:00:11;27.50;45.80
75824;DHT22;64457;51.976;9.834;2023-04-22T14:02:39;27.00;46.80
75824;DHT22;64457;51.976;9.834;2023-04-22T14:05:07;27.10;48.00
75824;DHT22;64457;51.976;9.834;2023-04-22T14:07:35;27.40;49.00
75824;DHT22;64457;51.976;9.834;2023-04-22T14:10:05;27.90;48.50
75824;DHT22;64457;51.976;9.834;2023-04-22T14:12:36;27.30;45.30
75824;DHT22;64457;51.976;9.834;2023-04-22T14:15:05;27.50;48.20
75824;DHT22;64457;51.976;9.834;2023-04-22T14:17:35;27.60;46.10
75824;DHT22;64457;51.976;9.834;2023-04-22T14:20:03;27.80;46.70
75824;DHT22;64457;51.976;9.834;2023-04-22T14:22:33;27.80;45.60
75824;DHT22;64457;51.976;9.834;2023-04-22T14:25:01;28.00;47.00
75824;DHT22;64457;51.976;9.834;2023-04-22T14:27:30;27.90;45.60
75824;DHT22;64457;51.976;9.834;2023-04-22T14:29:58;28.20;45.60
75824;DHT22;64457;51.976;9.834;2023-04-22T14:32:26;28.30;46.40
75824;DHT22;64457;51.976;9.834;2023-04-22T14:34:56;28.20;45.80
75824;DHT22;64457;51.976;9.834;2023-04-22T14:37:24;27.90;46.50
75824;DHT22;64457;51.976;9.834;2023-04-22T14:39:52;27.80;46.70
75824;DHT22;64457;51.976;9.834;2023-04-22T14:42:22;27.70;46.20
75824;DHT22;64457;51.976;9.834;2023-04-22T14:44:53;27.80;46.80
75824;DHT22;64457;51.976;9.834;2023-04-22T14:47:20;28.00;46.50
75824;DHT22;64457;51.976;9.834;2023-04-22T14:49:48;27.90;45.40
75824;DHT22;64457;51.976;9.834;2023-04-22T14:52:15;28.20;46.50
75824;DHT22;64457;51.976;9.834;2023-04-22T14:54:42;28.40;46.70
75824;DHT22;64457;51.976;9.834;2023-04-22T14:57:12;28.00;45.00
75824;DHT22;64457;51.976;9.834;2023-04-22T14:59:40;28.20;46.00
75824;DHT22;64457;51.976;9.834;2023-04-22T15:02:12;28.40;46.40
75824;DHT22;64457;51.976;9.834;2023-04-22T15:04:41;28.20;44.40
75824;DHT22;64457;51.976;9.834;2023-04-22T15:07:09;28.40;45.90
75824;DHT22;64457;51.976;9.834;2023-04-22T15:09:37;28.40;44.70
75824;DHT22;64457;51.976;9.834;2023-04-22T15:12:08;28.20;44.90
75824;DHT22;64457;51.976;9.834;2023-04-22T15:14:37;27.90;45.40
75824;DHT22;64457;51.976;9.834;2023-04-22T15:17:06;27.90;45.10
75824;DHT22;64457;51.976;9.834;2023-04-22T15:19:40;28.30;47.90
75824;DHT22;64457;51.976;9.834;2023-04-22T15:22:07;28.80;45.40
75824;DHT22;64457;51.976;9.834;2023-04-22T15:24:35;28.80;44.40
75824;DHT22;64457;51.976;9.834;2023-04-22T15:27:03;28.10;45.20
75824;DHT22;64457;51.976;9.834;2023-04-22T15:29:33;27.80;45.50
75824;DHT22;64457;51.976;9.834;2023-04-22T15:32:04;27.60;45.50
75824;DHT22;64457;51.976;9.834;2023-04-22T15:34:35;27.80;47.00
75824;DHT22;64457;51.976;9.834;2023-04-22T15:37:05;28.20;45.40
75824;DHT22;64457;51.976;9.834;2023-04-22T15:39:34;28.00;44.10
75824;DHT22;64457;51.976;9.834;2023-04-22T15:42:02;27.50;45.50
75824;DHT22;64457;51.976;9.834;2023-04-22T15:44:31;26.70;46.10